Time;durP1;ratioP1;P1;durP2;ratioP2;P2;SDS_P1;SDS_P2;PMS_P1;PMS_P2;Temp;Humidity;BMP_temperature;BMP_pressure;BME280_temperature;BME280_humidity;BME280_pressure;Samples;Min_cycle;Max_cycle;Signal;HPM_P1;HPM_P2
2021/07/02 00:02:05;;;;;;;5.13;2.60;;;14.40;86.20;;;;;;5019746;28;20092;-74
2021/07/02 00:04:34;;;;;;;4.68;2.53;;;14.40;86.70;;;;;;5025545;28;20059;-74
2021/07/02 00:07:01;;;;;;;4.78;2.60;;;14.40;86.80;;;;;;5022239;28;20075;-74
2021/07/02 00:09:30;;;;;;;3.75;2.70;;;14.40;86.70;;;;;;5022697;28;20083;-73
2021/07/02 00:11:58;;;;;;;2.65;2.25;;;14.40;86.80;;;;;;5021733;28;20687;-71
2021/07/02 00:14:24;;;;;;;4.30;2.83;;;14.40;87.00;;;;;;5037891;28;20077;-72
2021/07/02 00:16:50;;;;;;;8.73;3.75;;;14.30;86.90;;;;;;5021004;28;20076;-73
2021/07/02 00:19:16;;;;;;;4.63;2.58;;;14.30;87.10;;;;;;5024597;28;20034;-72
2021/07/02 00:21:45;;;;;;;7.35;3.13;;;14.20;87.70;;;;;;5022022;28;20047;-73
2021/07/02 00:24:10;;;;;;;4.40;2.67;;;14.20;87.90;;;;;;5027328;28;20029;-72
2021/07/02 00:26:36;;;;;;;4.50;2.72;;;14.20;87.50;;;;;;5024439;28;20703;-73
2021/07/02 00:29:03;;;;;;;5.55;2.80;;;14.20;88.00;;;;;;5029488;28;20024;-74
2021/07/02 00:31:32;;;;;;;4.60;3.30;;;14.20;87.90;;;;;;5023749;28;20037;-73
2021/07/02 00:33:58;;;;;;;4.75;2.80;;;14.20;87.80;;;;;;5025979;28;20029;-73
2021/07/02 00:39:38;;;;;;;7.95;3.00;;;14.10;88.30;;;;;;5030689;28;20045;-72
2021/07/02 00:42:04;;;;;;;4.53;3.10;;;13.90;88.60;;;;;;5028091;28;20051;-71
2021/07/02 00:44:53;;;;;;;3.88;2.60;;;13.90;88.80;;;;;;5023723;28;20052;-72
2021/07/02 00:47:19;;;;;;;5.78;2.55;;;13.90;89.00;;;;;;5018855;28;20049;-72
2021/07/02 00:49:46;;;;;;;4.65;2.72;;;13.90;88.90;;;;;;5029071;28;20033;-71
2021/07/02 00:52:15;;;;;;;5.38;2.78;;;13.90;88.70;;;;;;5026366;28;20472;-70
2021/07/02 00:54:43;;;;;;;3.60;2.80;;;13.80;89.20;;;;;;5042037;28;20033;-72
2021/07/02 00:57:10;;;;;;;6.75;3.85;;;13.70;89.40;;;;;;5020408;28;20022;-73
2021/07/02 00:59:36;;;;;;;5.68;2.97;;;13.60;90.00;;;;;;5023039;28;20037;-71
2021/07/02 01:02:05;;;;;;;4.78;2.75;;;13.60;90.10;;;;;;5022878;28;20053;-73
2021/07/02 01:04:35;;;;;;;2.85;2.33;;;13.60;90.10;;;;;;5026221;28;20064;-72
2021/07/02 01:07:01;;;;;;;4.45;2.97;;;13.60;90.00;;;;;;5021952;28;20025;-73
2021/07/02 01:09:31;;;;;;;4.30;2.75;;;13.60;90.10;;;;;;5024075;28;20031;-72
2021/07/02 01:11:59;;;;;;;5.90;2.78;;;13.70;90.00;;;;;;5026935;28;20125;-73
2021/07/02 01:14:33;;;;;;;5.90;2.90;;;13.70;89.90;;;;;;5025962;28;20083;-72
2021/07/02 01:17:02;;;;;;;7.32;3.20;;;13.70;90.00;;;;;;5026875;28;20114;-73
2021/07/02 01:19:31;;;;;;;5.03;2.80;;;13.60;90.00;;;;;;5019905;28;20044;-72
2021/07/02 01:22:07;;;;;;;;;;;;;;;;;;;;;
2021/07/02 01:24:33;;;;;;;5.93;3.03;;;13.60;90.00;;;;;;5024113;28;20036;-73
2021/07/02 01:27:20;;;;;;;6.43;2.70;;;13.60;90.00;;;;;;5027129;28;20109;-72
2021/07/02 01:29:47;;;;;;;4.20;3.15;;;13.70;89.80;;;;;;5025017;28;20100;-70
2021/07/02 01:32:14;;;;;;;7.63;2.60;;;13.60;89.80;;;;;;5022868;28;20116;-74
2021/07/02 01:34:40;;;;;;;6.13;2.55;;;13.70;89.50;;;;;;5017994;28;20503;-72
2021/07/02 01:37:08;;;;;;;6.15;2.88;;;13.70;89.40;;;;;;5024373;28;20175;-74
2021/07/02 01:39:57;;;;;;;3.80;2.67;;;13.70;89.20;;;;;;5036679;28;20508;-71
2021/07/02 01:42:32;;;;;;;6.18;2.70;;;13.80;89.10;;;;;;5015044;28;20038;-73
2021/07/02 01:45:04;;;;;;;5.00;2.97;;;13.80;89.10;;;;;;5022696;28;20754;-74
2021/07/02 01:47:30;;;;;;;2.83;2.40;;;13.80;89.20;;;;;;5024806;28;20060;-73
2021/07/02 01:49:55;;;;;;;5.70;3.08;;;13.80;88.90;;;;;;5027010;28;20064;-71
2021/07/02 01:52:21;;;;;;;5.93;3.22;;;13.80;88.80;;;;;;5019702;28;20053;-73
2021/07/02 01:54:47;;;;;;;4.28;2.50;;;13.80;88.70;;;;;;5017918;28;20029;-74
2021/07/02 01:57:25;;;;;;;7.18;2.97;;;13.80;88.70;;;;;;5020590;28;20030;-71
2021/07/02 01:59:51;;;;;;;6.60;2.88;;;13.80;88.70;;;;;;5018325;28;20026;-73
2021/07/02 02:02:17;;;;;;;3.25;2.55;;;13.80;88.60;;;;;;5019102;28;20113;-73
2021/07/02 02:05:14;;;;;;;5.78;2.70;;;13.80;88.60;;;;;;5026584;28;20030;-73
2021/07/02 02:07:40;;;;;;;4.93;2.95;;;13.80;88.60;;;;;;5009892;28;20073;-73
2021/07/02 02:10:09;;;;;;;4.03;3.00;;;13.70;88.60;;;;;;5023285;28;20052;-72
2021/07/02 02:12:36;;;;;;;4.72;2.90;;;13.70;88.80;;;;;;5019463;28;20026;-73
2021/07/02 02:15:02;;;;;;;5.68;2.80;;;13.70;88.80;;;;;;5026593;28;20063;-72
2021/07/02 02:17:28;;;;;;;7.22;3.00;;;13.70;88.80;;;;;;5020012;28;20032;-73
2021/07/02 02:20:01;;;;;;;4.28;2.88;;;13.70;89.00;;;;;;5038473;28;20057;-71
2021/07/02 02:22:27;;;;;;;4.57;3.00;;;13.70;88.90;;;;;;5025197;28;20021;-72
2021/07/02 02:24:52;;;;;;;4.68;2.63;;;13.70;88.90;;;;;;5014023;28;20622;-73
2021/07/02 02:27:18;;;;;;;7.03;2.97;;;13.60;88.80;;;;;;5037030;28;20029;-74
2021/07/02 02:29:44;;;;;;;6.20;2.60;;;13.60;88.70;;;;;;5025861;28;20467;-74
2021/07/02 02:32:12;;;;;;;5.60;2.70;;;13.60;88.80;;;;;;5020540;28;20092;-71
2021/07/02 02:34:38;;;;;;;4.15;2.45;;;13.60;88.80;;;;;;5020256;28;20033;-73
2021/07/02 02:37:04;;;;;;;4.88;2.97;;;13.60;88.80;;;;;;5013676;28;20037;-72
2021/07/02 02:39:36;;;;;;;3.60;2.45;;;13.60;88.90;;;;;;5014912;28;20071;-72
2021/07/02 02:42:02;;;;;;;5.35;2.70;;;13.60;89.10;;;;;;5015201;28;20037;-72
2021/07/02 02:44:28;;;;;;;4.70;2.17;;;13.60;89.00;;;;;;5020336;28;20029;-74
2021/07/02 02:47:04;;;;;;;5.50;2.95;;;13.60;88.90;;;;;;5024609;28;20185;-73
2021/07/02 02:49:30;;;;;;;4.53;2.85;;;13.60;88.90;;;;;;5020725;28;20026;-70
2021/07/02 02:51:56;;;;;;;5.05;2.60;;;13.60;89.10;;;;;;5019765;28;20083;-72
2021/07/02 02:54:22;;;;;;;5.78;2.95;;;13.60;89.60;;;;;;5020702;28;20029;-71
2021/07/02 02:57:04;;;;;;;3.58;2.35;;;13.50;90.10;;;;;;5021008;28;20183;-72
2021/07/02 02:59:40;;;;;;;3.95;2.58;;;13.50;90.20;;;;;;5014366;28;20087;-70
2021/07/02 03:02:06;;;;;;;4.72;3.00;;;13.50;90.10;;;;;;5024437;28;20529;-69
2021/07/02 03:04:34;;;;;;;4.78;2.90;;;13.60;90.00;;;;;;5019693;28;20040;-72
2021/07/02 03:06:59;;;;;;;4.40;2.77;;;13.60;90.00;;;;;;5022146;28;20051;-73
2021/07/02 03:09:25;;;;;;;5.25;2.80;;;13.60;90.00;;;;;;5012723;28;20539;-72
2021/07/02 03:11:52;;;;;;;4.60;2.80;;;13.60;90.00;;;;;;5012790;28;20018;-73
2021/07/02 03:14:19;;;;;;;4.30;2.83;;;13.60;90.00;;;;;;5018873;28;20068;-71
2021/07/02 03:16:46;;;;;;;3.70;2.50;;;13.60;89.80;;;;;;5024167;28;20416;-71
2021/07/02 03:19:12;;;;;;;5.15;2.72;;;13.60;89.60;;;;;;5037799;28;20520;-75
2021/07/02 03:21:42;;;;;;;4.63;2.97;;;13.60;89.50;;;;;;5024318;28;20034;-72
2021/07/02 03:24:09;;;;;;;4.75;3.25;;;13.60;89.90;;;;;;5017689;28;20104;-72
2021/07/02 03:26:34;;;;;;;6.13;3.25;;;13.50;89.60;;;;;;5026666;28;20022;-74
2021/07/02 03:29:01;;;;;;;8.80;3.47;;;13.50;90.10;;;;;;5021747;28;20025;-74
2021/07/02 03:31:27;;;;;;;6.85;3.35;;;13.50;90.40;;;;;;5022831;28;20030;-73
2021/07/02 03:33:59;;;;;;;4.97;3.15;;;13.40;90.70;;;;;;5029837;28;20369;-69
2021/07/02 03:36:25;;;;;;;6.50;2.78;;;13.50;90.60;;;;;;5031404;28;20044;-72
2021/07/02 03:38:51;;;;;;;6.70;3.55;;;13.50;90.60;;;;;;5027752;28;20080;-73
2021/07/02 03:41:17;;;;;;;6.13;3.95;;;13.50;90.60;;;;;;5022828;28;20049;-73
2021/07/02 03:44:31;;;;;;;6.40;3.33;;;13.50;90.40;;;;;;5030109;28;20485;-71
2021/07/02 03:47:02;;;;;;;5.18;2.50;;;13.40;90.40;;;;;;5015110;28;20140;-72
2021/07/02 03:49:37;;;;;;;5.53;3.22;;;13.40;90.70;;;;;;5029740;28;20033;-72
2021/07/02 03:52:04;;;;;;;4.97;2.90;;;13.40;90.70;;;;;;5037055;28;20025;-71
2021/07/02 03:54:30;;;;;;;5.55;3.40;;;13.50;90.60;;;;;;5024569;28;20030;-71
2021/07/02 03:57:10;;;;;;;5.20;3.17;;;13.50;90.50;;;;;;5030273;28;20048;-73
2021/07/02 03:59:44;;;;;;;5.70;3.10;;;13.50;90.60;;;;;;5031394;28;20063;-71
2021/07/02 04:02:11;;;;;;;6.20;3.30;;;13.60;90.40;;;;;;5026253;28;20412;-74
2021/07/02 04:04:44;;;;;;;4.32;2.88;;;13.50;90.40;;;;;;5025629;28;20033;-72
2021/07/02 04:07:12;;;;;;;6.65;2.92;;;13.60;90.40;;;;;;5030293;28;20108;-70
2021/07/02 04:09:41;;;;;;;3.67;3.00;;;13.60;90.20;;;;;;5027432;28;20025;-73
2021/07/02 04:12:09;;;;;;;5.28;2.80;;;13.60;90.30;;;;;;5029817;28;20049;-72
2021/07/02 04:14:36;;;;;;;4.47;3.17;;;13.60;90.30;;;;;;5027545;28;20339;-73
2021/07/02 04:17:02;;;;;;;5.78;3.10;;;13.60;90.20;;;;;;5037545;28;20599;-72
2021/07/02 04:19:28;;;;;;;5.07;3.30;;;13.70;90.20;;;;;;5028413;28;20168;-72
2021/07/02 04:21:54;;;;;;;6.03;3.30;;;13.60;90.20;;;;;;5028748;28;20466;-72
2021/07/02 04:24:23;;;;;;;5.53;3.00;;;13.70;90.30;;;;;;5025293;28;20056;-70
2021/07/02 04:26:49;;;;;;;6.07;3.95;;;13.70;90.40;;;;;;5033121;28;20036;-73
2021/07/02 04:29:17;;;;;;;6.13;3.88;;;13.70;90.50;;;;;;5029592;28;20067;-71
2021/07/02 04:31:43;;;;;;;4.45;2.97;;;13.70;90.50;;;;;;5029919;28;20041;-73
2021/07/02 04:34:11;;;;;;;5.70;3.17;;;13.70;90.20;;;;;;5025878;28;20025;-71
2021/07/02 04:36:41;;;;;;;5.35;3.13;;;13.70;90.20;;;;;;5024188;28;20036;-72
2021/07/02 04:39:18;;;;;;;5.45;3.05;;;13.70;90.20;;;;;;5023471;28;20582;-73
2021/07/02 04:42:06;;;;;;;5.13;3.50;;;13.70;90.30;;;;;;5024329;28;20033;-72
2021/07/02 04:44:34;;;;;;;7.32;3.53;;;13.80;90.20;;;;;;5029431;28;20045;-73
2021/07/02 04:47:00;;;;;;;6.07;3.22;;;13.80;90.10;;;;;;5033316;28;20029;-74
2021/07/02 04:49:26;;;;;;;5.30;3.15;;;13.80;90.00;;;;;;5041505;28;20032;-72
2021/07/02 04:51:52;;;;;;;6.78;3.65;;;13.80;90.10;;;;;;5032359;28;20529;-71
2021/07/02 04:54:24;;;;;;;5.97;3.38;;;13.80;90.10;;;;;;5027304;28;20022;-72
2021/07/02 04:56:51;;;;;;;8.70;3.50;;;13.90;90.20;;;;;;5028607;28;20031;-71
2021/07/02 04:59:18;;;;;;;5.97;3.40;;;13.80;90.20;;;;;;5027280;28;20443;-72
2021/07/02 05:01:44;;;;;;;5.65;3.50;;;13.80;90.20;;;;;;5025973;28;20033;-72
2021/07/02 05:04:16;;;;;;;6.13;3.53;;;13.80;90.40;;;;;;5030185;28;20041;-72
2021/07/02 05:06:44;;;;;;;8.73;4.15;;;13.80;90.30;;;;;;5021159;28;20040;-70
2021/07/02 05:09:11;;;;;;;7.68;4.13;;;13.80;90.20;;;;;;5022163;28;20820;-72
2021/07/02 05:11:38;;;;;;;6.50;3.92;;;13.80;90.10;;;;;;5020531;28;20033;-73
2021/07/02 05:14:05;;;;;;;8.38;3.78;;;13.80;90.20;;;;;;5035152;28;20029;-72
2021/07/02 05:16:31;;;;;;;7.25;3.88;;;13.80;90.20;;;;;;5020318;28;20107;-73
2021/07/02 05:18:57;;;;;;;8.27;3.50;;;13.80;90.20;;;;;;5027535;28;20029;-73
2021/07/02 05:21:26;;;;;;;7.88;3.65;;;13.80;90.20;;;;;;5032371;28;20556;-72
2021/07/02 05:23:52;;;;;;;7.00;3.70;;;13.80;90.20;;;;;;5031519;28;20038;-72
2021/07/02 05:26:18;;;;;;;9.70;4.07;;;13.80;90.20;;;;;;5027529;28;20030;-71
2021/07/02 05:28:44;;;;;;;6.72;3.85;;;13.90;90.30;;;;;;5023415;28;20095;-73
2021/07/02 05:31:16;;;;;;;6.65;4.13;;;13.90;90.20;;;;;;5019274;28;20097;-72
2021/07/02 05:33:43;;;;;;;6.78;3.63;;;13.90;90.20;;;;;;5021889;28;20026;-73
2021/07/02 05:36:15;;;;;;;5.65;3.70;;;13.90;90.20;;;;;;5026360;28;20029;-73
2021/07/02 05:38:50;;;;;;;5.10;3.40;;;14.00;90.20;;;;;;5017993;28;20109;-73
2021/07/02 05:41:22;;;;;;;7.00;4.18;;;14.10;90.30;;;;;;5021210;28;20534;-71
2021/07/02 05:43:57;;;;;;;6.32;3.90;;;14.00;90.10;;;;;;5039828;28;20565;-73
2021/07/02 05:46:33;;;;;;;6.35;4.10;;;14.20;90.20;;;;;;5024714;28;20076;-73
2021/07/02 05:48:59;;;;;;;5.50;3.50;;;14.20;90.30;;;;;;5023262;28;20492;-74
2021/07/02 05:51:28;;;;;;;9.50;4.22;;;14.30;90.20;;;;;;5026096;28;20021;-70
2021/07/02 05:54:09;;;;;;;;;;;;;;;;;;;;;
2021/07/02 05:56:38;;;;;;;8.52;4.88;;;14.50;90.00;;;;;;5022698;28;20537;-69
2021/07/02 05:59:04;;;;;;;6.53;3.50;;;14.70;90.00;;;;;;5017182;28;20063;-71
2021/07/02 06:01:30;;;;;;;9.50;4.75;;;14.70;89.30;;;;;;5021804;28;20057;-73
2021/07/02 06:03:57;;;;;;;7.82;4.15;;;14.80;89.50;;;;;;5032142;28;20056;-73
2021/07/02 06:06:23;;;;;;;7.65;4.22;;;15.00;89.90;;;;;;5041210;28;20515;-72
2021/07/02 06:08:50;;;;;;;10.85;4.82;;;14.90;88.00;;;;;;5019956;28;20037;-72
2021/07/02 06:11:22;;;;;;;7.38;4.60;;;15.00;88.10;;;;;;5021459;28;20021;-72
2021/07/02 06:13:49;;;;;;;6.50;3.90;;;15.10;88.10;;;;;;5030604;28;20519;-71
2021/07/02 06:16:15;;;;;;;7.15;4.45;;;15.10;88.20;;;;;;5023965;28;20091;-73
2021/07/02 06:18:44;;;;;;;8.77;4.20;;;15.10;87.50;;;;;;5021476;28;20030;-72
2021/07/02 06:21:23;;;;;;;9.10;4.57;;;15.10;87.90;;;;;;5022977;28;20087;-72
2021/07/02 06:23:51;;;;;;;7.38;3.90;;;15.20;88.00;;;;;;5026315;28;20029;-74
2021/07/02 06:26:17;;;;;;;7.40;4.25;;;15.30;87.50;;;;;;5031442;28;20026;-73
2021/07/02 06:28:43;;;;;;;8.82;4.22;;;15.30;84.50;;;;;;5026848;28;20036;-71
2021/07/02 06:31:09;;;;;;;9.43;4.80;;;15.40;82.90;;;;;;5026483;28;20034;-74
2021/07/02 06:33:35;;;;;;;6.95;4.03;;;15.40;83.00;;;;;;5024553;28;20037;-74
2021/07/02 06:36:03;;;;;;;7.57;4.20;;;15.40;81.90;;;;;;5026272;28;20029;-73
2021/07/02 06:38:29;;;;;;;7.93;3.83;;;15.50;82.40;;;;;;5024616;28;20761;-72
2021/07/02 06:40:55;;;;;;;8.95;4.07;;;15.50;81.60;;;;;;5022141;28;20096;-73
2021/07/02 06:43:31;;;;;;;7.13;3.80;;;15.60;81.80;;;;;;5026852;28;20048;-72
2021/07/02 06:45:57;;;;;;;7.25;4.35;;;15.70;82.00;;;;;;5024509;28;20117;-74
2021/07/02 06:48:22;;;;;;;7.13;4.32;;;15.90;83.80;;;;;;5025082;28;20698;-73
2021/07/02 06:50:48;;;;;;;5.25;3.80;;;16.00;79.20;;;;;;5028149;28;20535;-73
2021/07/02 06:53:15;;;;;;;4.85;3.40;;;16.10;78.60;;;;;;5026329;28;20121;-69
2021/07/02 06:55:42;;;;;;;6.97;4.20;;;16.10;78.40;;;;;;5026073;28;20014;-74
2021/07/02 06:58:11;;;;;;;7.07;3.88;;;16.20;80.40;;;;;;5028113;28;20021;-73
2021/07/02 07:00:43;;;;;;;5.88;3.28;;;16.30;78.50;;;;;;5027707;28;20121;-74
2021/07/02 07:03:09;;;;;;;5.57;3.80;;;16.40;79.40;;;;;;5024811;28;20025;-69
2021/07/02 07:05:37;;;;;;;5.65;3.72;;;16.40;75.90;;;;;;5025481;28;20032;-73
2021/07/02 07:08:04;;;;;;;5.63;4.00;;;16.30;77.20;;;;;;5021901;28;20044;-71
2021/07/02 07:10:31;;;;;;;7.43;4.38;;;16.30;75.20;;;;;;5021216;28;20028;-73
2021/07/02 07:12:58;;;;;;;5.18;3.53;;;16.30;75.10;;;;;;5023887;28;20052;-73
2021/07/02 07:15:27;;;;;;;8.02;4.18;;;16.30;76.80;;;;;;5021758;28;20119;-72
2021/07/02 07:17:56;;;;;;;8.68;3.92;;;16.30;76.00;;;;;;5018874;28;20033;-72
2021/07/02 07:20:22;;;;;;;6.80;3.55;;;16.30;77.80;;;;;;5020690;28;20033;-72
2021/07/02 07:22:51;;;;;;;5.93;3.38;;;16.30;76.40;;;;;;5020573;28;20040;-72
2021/07/02 07:25:20;;;;;;;5.63;3.88;;;16.30;77.20;;;;;;5023842;28;20033;-71
2021/07/02 07:27:47;;;;;;;5.47;3.20;;;16.40;77.20;;;;;;5022530;28;20065;-72
2021/07/02 07:30:13;;;;;;;9.52;3.35;;;16.40;76.50;;;;;;5022493;28;20476;-72
2021/07/02 07:32:45;;;;;;;5.97;3.70;;;16.40;74.80;;;;;;5029530;28;20163;-74
2021/07/02 07:38:11;;;;;;;;;;;16.50;74.10;;;;;;5026228;28;20053;-71
2021/07/02 07:40:40;;;;;;;6.70;3.67;;;16.60;75.10;;;;;;5026487;28;19924;-73
2021/07/02 07:43:06;;;;;;;6.78;3.72;;;16.70;70.80;;;;;;5024902;28;20168;-73
2021/07/02 07:45:32;;;;;;;14.23;4.13;;;16.70;71.50;;;;;;5025802;28;20105;-72
2021/07/02 07:48:01;;;;;;;7.18;3.90;;;16.70;72.10;;;;;;5024451;28;20089;-73
2021/07/02 07:50:30;;;;;;;4.32;3.05;;;16.90;72.90;;;;;;5024518;28;20033;-73
2021/07/02 07:52:59;;;;;;;8.63;3.55;;;16.80;69.00;;;;;;5022289;28;20439;-74
2021/07/02 07:55:27;;;;;;;8.40;4.15;;;16.80;70.10;;;;;;5030152;28;20033;-73
2021/07/02 07:57:53;;;;;;;4.53;3.35;;;17.00;70.10;;;;;;5026689;28;20044;-72
2021/07/02 08:00:32;;;;;;;4.88;3.50;;;17.10;70.40;;;;;;5025815;28;20599;-70
2021/07/02 08:03:00;;;;;;;6.05;3.60;;;17.10;69.60;;;;;;5026478;28;20064;-72
2021/07/02 08:05:26;;;;;;;5.50;3.63;;;17.10;70.40;;;;;;5024337;28;20080;-73
2021/07/02 08:07:52;;;;;;;6.18;3.80;;;17.20;70.20;;;;;;5021021;28;20033;-74
2021/07/02 08:10:27;;;;;;;4.25;3.10;;;17.20;68.30;;;;;;5022743;28;20421;-73
2021/07/02 08:13:05;;;;;;;7.25;3.40;;;17.20;67.90;;;;;;5018939;28;20499;-73
2021/07/02 08:18:18;;;;;;;6.25;3.60;;;17.10;67.60;;;;;;5025193;28;20038;-74
2021/07/02 08:20:44;;;;;;;6.22;3.60;;;17.10;68.20;;;;;;5028523;28;20518;-73
2021/07/02 08:23:09;;;;;;;6.05;3.78;;;17.20;69.10;;;;;;5028468;28;20037;-73
2021/07/02 08:25:38;;;;;;;7.40;3.30;;;17.30;70.60;;;;;;5026475;28;20110;-74
2021/07/02 08:30:50;;;;;;;5.70;3.60;;;17.50;69.50;;;;;;5021216;28;20091;-74
2021/07/02 08:33:18;;;;;;;4.50;3.03;;;17.60;68.50;;;;;;5025068;28;20481;-73
2021/07/02 08:35:48;;;;;;;;;;;17.70;67.90;;;;;;5023854;28;20029;-74
2021/07/02 08:38:14;;;;;;;6.30;3.15;;;17.70;65.80;;;;;;5026437;28;19909;-74
2021/07/02 08:40:41;;;;;;;5.28;3.50;;;17.60;67.60;;;;;;5022253;28;20030;-74
2021/07/02 08:43:10;;;;;;;5.32;3.75;;;17.60;66.70;;;;;;5021666;28;20072;-74
2021/07/02 08:45:37;;;;;;;6.57;3.40;;;17.50;66.00;;;;;;5026140;28;20502;-74
2021/07/02 08:48:07;;;;;;;3.53;2.88;;;17.60;65.90;;;;;;5021678;28;20036;-70
2021/07/02 08:50:38;;;;;;;5.13;3.25;;;17.60;68.20;;;;;;5026611;28;20013;-74
2021/07/02 08:53:05;;;;;;;5.28;3.35;;;17.70;66.80;;;;;;5030722;28;20041;-74
2021/07/02 08:55:32;;;;;;;6.85;3.58;;;17.90;70.40;;;;;;5029843;28;20487;-74
2021/07/02 08:57:58;;;;;;;5.78;3.38;;;18.10;64.30;;;;;;5041356;28;20033;-73
2021/07/02 09:00:23;;;;;;;5.75;3.25;;;18.10;67.20;;;;;;5028345;28;20172;-74
2021/07/02 09:02:49;;;;;;;7.35;3.42;;;18.10;65.30;;;;;;5026101;28;20067;-73
2021/07/02 09:05:34;;;;;;;6.00;3.25;;;17.90;65.50;;;;;;5024262;28;20036;-74
2021/07/02 09:08:17;;;;;;;5.82;3.28;;;18.20;65.30;;;;;;5026728;28;20061;-74
2021/07/02 09:10:42;;;;;;;4.88;3.22;;;18.20;64.00;;;;;;5030498;28;20294;-71
2021/07/02 09:13:08;;;;;;;6.43;3.35;;;18.40;64.70;;;;;;5023183;28;20021;-72
2021/07/02 09:15:46;;;;;;;4.78;3.00;;;18.50;63.60;;;;;;5028917;28;21394;-73
2021/07/02 09:18:12;;;;;;;5.72;3.42;;;18.60;63.00;;;;;;5030997;28;20025;-72
2021/07/02 09:20:40;;;;;;;4.93;3.30;;;18.70;64.90;;;;;;5022314;28;20045;-73
2021/07/02 09:23:08;;;;;;;5.25;3.03;;;18.60;65.10;;;;;;5027334;28;20508;-72
2021/07/02 09:25:53;;;;;;;4.75;3.35;;;18.40;64.70;;;;;;5025633;28;20113;-74
2021/07/02 09:28:31;;;;;;;4.30;2.95;;;18.30;65.20;;;;;;5025862;28;20113;-73
2021/07/02 09:30:57;;;;;;;3.88;2.97;;;18.40;65.80;;;;;;5028211;28;20030;-73
2021/07/02 09:33:25;;;;;;;7.15;3.05;;;18.40;62.10;;;;;;5024978;28;20074;-73
2021/07/02 09:35:56;;;;;;;5.32;3.55;;;18.30;62.00;;;;;;5028347;28;20056;-73
2021/07/02 09:38:35;;;;;;;4.97;3.30;;;18.40;60.30;;;;;;5028537;28;20558;-71
2021/07/02 09:41:02;;;;;;;4.55;3.05;;;18.40;60.30;;;;;;5023740;28;20033;-72
2021/07/02 09:43:30;;;;;;;5.32;3.22;;;18.50;62.30;;;;;;5021026;28;20032;-73
2021/07/02 09:46:12;;;;;;;5.97;3.20;;;18.70;63.30;;;;;;5026004;28;20090;-73
2021/07/02 09:48:45;;;;;;;6.40;3.15;;;18.90;61.70;;;;;;5025192;28;20036;-73
2021/07/02 09:51:12;;;;;;;3.65;2.70;;;18.90;59.70;;;;;;5025290;28;20026;-72
2021/07/02 09:53:40;;;;;;;4.22;3.25;;;19.00;62.10;;;;;;5027479;28;20369;-73
2021/07/02 09:56:18;;;;;;;4.90;3.35;;;18.80;59.90;;;;;;5023249;28;20080;-75
2021/07/02 09:58:44;;;;;;;3.15;2.60;;;18.80;61.60;;;;;;5029248;28;20117;-73
2021/07/02 10:01:11;;;;;;;4.00;2.95;;;19.00;59.30;;;;;;5027194;28;20526;-75
2021/07/02 10:04:10;;;;;;;3.58;2.90;;;19.00;61.20;;;;;;5024215;28;20489;-75
2021/07/02 10:06:36;;;;;;;8.40;3.60;;;19.00;60.10;;;;;;5027450;28;20074;-74
2021/07/02 10:09:11;;;;;;;3.30;2.83;;;18.80;60.00;;;;;;5025340;28;20032;-75
2021/07/02 10:11:39;;;;;;;3.63;2.83;;;18.70;60.50;;;;;;5030641;28;20091;-74
2021/07/02 10:14:05;;;;;;;5.63;3.20;;;18.60;60.80;;;;;;5030175;28;20037;-74
2021/07/02 10:16:32;;;;;;;4.35;3.63;;;18.60;61.80;;;;;;5028628;28;20276;-74
2021/07/02 10:19:05;;;;;;;5.63;3.10;;;18.60;61.00;;;;;;5021448;28;20045;-74
2021/07/02 10:21:40;;;;;;;5.18;3.25;;;18.60;61.60;;;;;;5029227;28;20025;-73
2021/07/02 10:24:12;;;;;;;4.53;3.15;;;18.60;61.70;;;;;;5029865;28;20112;-74
2021/07/02 10:26:38;;;;;;;4.30;3.15;;;18.60;60.90;;;;;;5025842;28;20032;-75
2021/07/02 10:29:04;;;;;;;4.78;3.45;;;18.70;62.70;;;;;;5029672;28;20022;-75
2021/07/02 10:31:33;;;;;;;6.60;3.92;;;18.80;61.60;;;;;;5026077;28;20061;-75
2021/07/02 10:34:01;;;;;;;4.40;3.17;;;18.90;61.40;;;;;;5028281;28;20033;-75
2021/07/02 10:36:32;;;;;;;3.40;2.63;;;19.00;58.70;;;;;;5020556;28;20030;-75
2021/07/02 10:38:58;;;;;;;3.38;2.65;;;18.90;57.60;;;;;;5028814;28;20025;-75
2021/07/02 10:41:31;;;;;;;2.95;2.58;;;19.10;56.40;;;;;;5026389;28;20128;-75
2021/07/02 10:44:08;;;;;;;4.68;2.97;;;19.00;58.20;;;;;;5029615;28;20119;-75
2021/07/02 10:46:59;;;;;;;4.83;3.00;;;18.90;58.10;;;;;;5022951;28;20029;-73
2021/07/02 10:49:39;;;;;;;4.45;3.08;;;18.70;57.50;;;;;;5022322;28;20049;-73
2021/07/02 10:52:31;;;;;;;4.05;2.97;;;18.70;58.00;;;;;;5019821;28;20036;-74
2021/07/02 10:54:58;;;;;;;6.68;3.42;;;18.60;58.90;;;;;;5020084;28;20025;-74
2021/07/02 10:57:27;;;;;;;4.70;2.72;;;18.70;59.80;;;;;;5024430;28;20085;-72
2021/07/02 10:59:53;;;;;;;5.80;2.97;;;19.00;60.80;;;;;;5023945;28;20160;-74
2021/07/02 11:02:29;;;;;;;4.07;2.33;;;19.20;59.50;;;;;;5023779;28;20088;-73
2021/07/02 11:04:59;;;;;;;3.40;2.65;;;19.40;53.70;;;;;;5023662;28;20094;-72
2021/07/02 11:07:25;;;;;;;2.85;2.42;;;19.40;55.70;;;;;;5024268;28;20025;-74
2021/07/02 11:09:57;;;;;;;3.30;2.75;;;19.30;53.80;;;;;;5025694;28;20029;-74
2021/07/02 11:12:23;;;;;;;3.53;2.83;;;19.30;55.10;;;;;;5019043;28;20044;-74
2021/07/02 11:14:55;;;;;;;3.85;2.78;;;19.50;56.20;;;;;;5024068;28;20022;-74
2021/07/02 11:17:31;;;;;;;5.78;2.80;;;19.40;55.80;;;;;;5023037;28;20028;-74
2021/07/02 11:20:09;;;;;;;3.60;2.88;;;19.50;58.70;;;;;;5028032;28;20037;-73
2021/07/02 11:22:59;;;;;;;4.20;3.00;;;19.80;60.00;;;;;;5029835;28;20115;-74
2021/07/02 11:25:44;;;;;;;3.20;2.70;;;20.00;55.10;;;;;;5023006;28;20025;-74
2021/07/02 11:28:21;;;;;;;3.90;2.83;;;20.00;56.60;;;;;;5022400;28;20531;-75
2021/07/02 11:30:48;;;;;;;3.33;2.80;;;19.90;56.10;;;;;;5024812;28;20128;-74
2021/07/02 11:33:21;;;;;;;5.57;2.90;;;19.80;54.20;;;;;;5025364;28;20022;-74
2021/07/02 11:36:05;;;;;;;3.13;2.53;;;19.60;55.80;;;;;;5027403;28;20104;-74
2021/07/02 11:38:31;;;;;;;4.70;2.92;;;19.40;54.90;;;;;;5029870;28;20080;-71
2021/07/02 11:41:05;;;;;;;4.95;2.97;;;19.50;57.80;;;;;;5029790;28;20112;-74
2021/07/02 11:43:35;;;;;;;4.57;3.35;;;19.60;56.00;;;;;;5047296;28;20026;-72
2021/07/02 11:46:02;;;;;;;3.75;2.45;;;19.70;55.70;;;;;;5027741;28;20120;-74
2021/07/02 11:48:40;;;;;;;3.55;2.70;;;19.70;53.60;;;;;;5025349;28;20037;-75
2021/07/02 11:51:38;;;;;;;5.03;2.40;;;19.60;54.00;;;;;;5029243;28;21909;-73
2021/07/02 11:54:05;;;;;;;2.50;2.10;;;19.60;53.40;;;;;;5016794;28;20036;-75
2021/07/02 11:56:36;;;;;;;4.03;2.72;;;19.60;53.40;;;;;;5022642;28;20112;-75
2021/07/02 11:59:15;;;;;;;3.30;2.60;;;19.70;55.60;;;;;;5023458;28;20485;-75
2021/07/02 12:01:45;;;;;;;4.82;2.92;;;19.60;54.70;;;;;;5024295;28;20888;-75
2021/07/02 12:04:16;;;;;;;3.50;3.17;;;19.50;53.70;;;;;;5026378;28;20433;-75
2021/07/02 12:06:44;;;;;;;7.82;2.88;;;19.50;55.20;;;;;;5027415;28;20057;-74
2021/07/02 12:09:21;;;;;;;6.32;2.67;;;19.50;55.60;;;;;;5028687;28;20078;-74
2021/07/02 12:11:54;;;;;;;2.80;2.60;;;19.70;55.70;;;;;;5026741;28;20493;-73
2021/07/02 12:14:39;;;;;;;3.50;2.72;;;19.80;54.30;;;;;;5028705;28;20021;-74
2021/07/02 12:17:05;;;;;;;3.47;2.72;;;19.90;54.50;;;;;;5022592;28;20036;-74
2021/07/02 12:19:36;;;;;;;3.58;2.90;;;20.00;55.70;;;;;;5028307;28;20115;-75
2021/07/02 12:22:06;;;;;;;3.55;2.55;;;20.10;55.50;;;;;;5023799;28;20029;-74
2021/07/02 12:24:34;;;;;;;4.38;2.53;;;20.10;51.50;;;;;;5028931;28;20073;-74
2021/07/02 12:27:02;;;;;;;;;;;20.10;55.20;;;;;;5026581;28;20026;-73
2021/07/02 12:29:29;;;;;;;3.33;2.70;;;20.00;53.80;;;;;;5027022;28;20398;-74
2021/07/02 12:32:11;;;;;;;4.13;3.00;;;20.00;54.60;;;;;;5028123;28;20037;-73
2021/07/02 12:34:41;;;;;;;3.67;2.88;;;19.80;54.40;;;;;;5028618;28;20022;-74
2021/07/02 12:37:12;;;;;;;5.75;3.17;;;19.80;55.10;;;;;;5024959;28;20026;-73
2021/07/02 12:39:46;;;;;;;3.30;2.75;;;19.80;54.20;;;;;;5025321;28;20033;-73
2021/07/02 12:42:32;;;;;;;3.58;2.75;;;19.70;55.20;;;;;;5025605;28;20080;-74
2021/07/02 12:45:00;;;;;;;3.50;2.60;;;19.80;56.60;;;;;;5022303;28;20033;-74
2021/07/02 12:47:30;;;;;;;4.70;2.90;;;19.80;54.90;;;;;;5020264;28;20373;-73
2021/07/02 12:50:02;;;;;;;3.92;2.75;;;20.00;58.00;;;;;;5022293;28;20060;-74
2021/07/02 12:55:05;;;;;;;2.97;2.63;;;20.10;55.90;;;;;;5020016;28;20057;-75
2021/07/02 12:57:39;;;;;;;3.90;3.08;;;20.10;55.30;;;;;;5038850;28;20028;-75
2021/07/02 13:00:14;;;;;;;4.30;3.00;;;20.00;54.80;;;;;;5027505;28;20025;-74
2021/07/02 13:02:52;;;;;;;3.40;3.05;;;20.00;57.00;;;;;;5029223;28;20512;-74
2021/07/02 13:05:21;;;;;;;3.65;3.10;;;20.10;56.20;;;;;;5040292;28;20029;-73
2021/07/02 13:07:53;;;;;;;3.55;2.95;;;20.00;54.10;;;;;;5022891;28;20451;-75
2021/07/02 13:10:32;;;;;;;3.13;2.53;;;20.10;55.10;;;;;;5026688;28;20018;-74
2021/07/02 13:13:17;;;;;;;3.13;2.53;;;20.20;53.20;;;;;;5027786;28;20036;-72
2021/07/02 13:15:46;;;;;;;3.50;2.60;;;20.20;52.00;;;;;;5041296;28;20034;-75
2021/07/02 13:18:29;;;;;;;2.83;2.55;;;20.20;54.00;;;;;;5024313;28;20045;-74
2021/07/02 13:21:05;;;;;;;3.22;2.88;;;20.20;53.30;;;;;;5042791;28;20029;-72